Time;durP1;ratioP1;P1;durP2;ratioP2;P2;SDS_P1;SDS_P2;PMS_P1;PMS_P2;Temp;Humidity;BMP_temperature;BMP_pressure;BME280_temperature;BME280_humidity;BME280_pressure;Samples;Min_cycle;Max_cycle;Signal;HPM_P1;HPM_P2
2024/03/08 00:01:48;;;;;;;13.37;8.70;;;3.80;99.90;;;;;;5051428;28;20179;-68
2024/03/08 00:04:15;;;;;;;16.53;9.07;;;3.80;99.90;;;;;;5051812;28;20250;-68
2024/03/08 00:06:41;;;;;;;14.90;10.10;;;3.80;99.90;;;;;;5052039;28;20190;-68
2024/03/08 00:09:07;;;;;;;18.27;10.33;;;3.70;99.90;;;;;;5051906;28;20474;-68
2024/03/08 00:11:34;;;;;;;16.07;9.80;;;3.70;99.90;;;;;;5051966;28;20398;-68
2024/03/08 00:14:00;;;;;;;19.60;11.10;;;3.70;99.90;;;;;;5051690;28;20405;-68
2024/03/08 00:16:26;;;;;;;19.90;9.50;;;3.70;99.90;;;;;;5051903;28;20408;-68
2024/03/08 00:18:51;;;;;;;13.57;9.77;;;3.70;99.90;;;;;;5051848;28;20198;-68
2024/03/08 00:21:17;;;;;;;14.47;9.97;;;3.60;99.90;;;;;;5044856;28;20186;-68
2024/03/08 00:23:42;;;;;;;12.70;8.73;;;3.70;99.90;;;;;;5032556;28;20674;-68
2024/03/08 00:26:08;;;;;;;15.87;9.80;;;3.70;99.90;;;;;;5037450;28;20202;-68
2024/03/08 00:28:34;;;;;;;15.87;10.13;;;3.60;99.90;;;;;;5026951;28;20193;-71
2024/03/08 00:31:00;;;;;;;16.50;10.63;;;3.60;99.90;;;;;;5023671;28;20238;-71
2024/03/08 00:33:27;;;;;;;16.83;10.50;;;3.50;99.90;;;;;;5031239;28;20440;-71
2024/03/08 00:35:53;;;;;;;20.67;9.80;;;3.50;99.90;;;;;;5051521;28;20578;-71
2024/03/08 00:38:19;;;;;;;13.40;8.73;;;3.50;99.90;;;;;;5050093;28;20429;-71
2024/03/08 00:40:44;;;;;;;15.93;9.80;;;3.50;99.90;;;;;;5050100;28;20462;-71
2024/03/08 00:43:10;;;;;;;17.90;9.80;;;3.50;99.90;;;;;;5051241;28;20167;-71
2024/03/08 00:45:36;;;;;;;12.37;8.80;;;3.50;99.90;;;;;;5051240;28;20171;-71
2024/03/08 00:48:03;;;;;;;15.87;10.00;;;3.50;99.90;;;;;;5050433;28;20182;-71
2024/03/08 00:50:28;;;;;;;24.03;11.20;;;3.50;99.90;;;;;;5051072;28;20459;-71
2024/03/08 00:52:54;;;;;;;16.97;9.80;;;3.50;99.90;;;;;;5051190;28;20896;-71
2024/03/08 00:55:19;;;;;;;18.53;11.20;;;3.40;99.90;;;;;;5051463;28;20163;-71
2024/03/08 00:57:45;;;;;;;15.17;9.20;;;3.40;99.90;;;;;;5049941;28;20468;-71
2024/03/08 01:00:12;;;;;;;17.90;10.10;;;3.40;99.90;;;;;;5049798;28;20167;-71
2024/03/08 01:02:38;;;;;;;19.30;10.40;;;3.40;99.90;;;;;;5050107;28;20183;-71
2024/03/08 01:05:07;;;;;;;14.23;9.00;;;3.40;99.90;;;;;;5051231;28;20402;-71
2024/03/08 01:07:35;;;;;;;13.30;10.30;;;3.40;99.90;;;;;;5051188;28;20488;-71
2024/03/08 01:10:02;;;;;;;19.30;11.47;;;3.30;99.90;;;;;;5050134;28;20417;-71
2024/03/08 01:12:29;;;;;;;14.50;9.80;;;3.30;99.90;;;;;;5050093;28;20409;-71
2024/03/08 01:14:55;;;;;;;14.63;8.80;;;3.40;99.90;;;;;;5051016;28;20405;-71
2024/03/08 01:17:20;;;;;;;12.53;8.70;;;3.40;99.90;;;;;;5050141;28;20779;-71
2024/03/08 01:19:46;;;;;;;15.00;9.10;;;3.30;99.90;;;;;;5051055;28;20185;-71
2024/03/08 01:22:11;;;;;;;11.90;9.37;;;3.30;99.90;;;;;;5055145;28;20225;-71
2024/03/08 01:24:37;;;;;;;14.40;10.07;;;3.30;99.90;;;;;;5054810;28;20584;-71
2024/03/08 01:27:03;;;;;;;14.73;9.70;;;3.30;99.90;;;;;;5054922;28;20217;-71
2024/03/08 01:29:29;;;;;;;16.77;10.07;;;3.30;99.90;;;;;;5053530;28;20175;-71
2024/03/08 01:31:56;;;;;;;17.53;11.47;;;3.20;99.90;;;;;;5053585;28;20448;-71
2024/03/08 01:34:22;;;;;;;20.73;10.80;;;3.20;99.90;;;;;;5054885;28;20400;-71
2024/03/08 01:36:48;;;;;;;15.17;9.87;;;3.30;99.90;;;;;;5054773;28;20397;-71
2024/03/08 01:39:14;;;;;;;26.07;10.87;;;3.20;99.90;;;;;;5053485;28;20436;-71
2024/03/08 01:41:40;;;;;;;18.17;10.10;;;3.20;99.90;;;;;;5054406;28;20968;-71
2024/03/08 01:44:07;;;;;;;18.77;10.03;;;3.10;99.90;;;;;;5054378;28;20174;-71
2024/03/08 01:46:33;;;;;;;18.60;10.67;;;3.20;99.90;;;;;;5052809;28;20457;-71
2024/03/08 01:49:00;;;;;;;17.13;10.47;;;3.20;99.90;;;;;;5054108;28;20421;-71
2024/03/08 01:51:28;;;;;;;19.07;10.67;;;3.20;99.90;;;;;;5053865;28;20437;-71
2024/03/08 01:53:54;;;;;;;18.93;10.33;;;3.20;99.90;;;;;;5052513;28;20527;-71
2024/03/08 01:56:20;;;;;;;16.07;9.00;;;3.20;99.90;;;;;;5053107;28;20417;-71
2024/03/08 01:58:47;;;;;;;17.93;10.07;;;3.10;99.90;;;;;;5051968;28;20437;-71
2024/03/08 02:01:14;;;;;;;19.87;10.47;;;3.10;99.90;;;;;;5054224;28;20656;-71
2024/03/08 02:03:40;;;;;;;18.33;10.60;;;3.10;99.90;;;;;;5054016;28;20912;-71
2024/03/08 02:06:09;;;;;;;21.03;10.70;;;3.00;99.90;;;;;;5052656;28;20449;-71
2024/03/08 02:08:35;;;;;;;15.17;9.03;;;3.00;99.90;;;;;;5052596;28;20191;-71
2024/03/08 02:11:02;;;;;;;19.43;10.50;;;3.00;99.90;;;;;;5054241;28;20432;-71
2024/03/08 02:13:28;;;;;;;17.93;9.73;;;3.00;99.90;;;;;;5052538;28;20467;-71
2024/03/08 02:16:01;;;;;;;17.07;10.03;;;3.00;99.90;;;;;;5054145;28;20463;-71
2024/03/08 02:18:29;;;;;;;19.87;10.23;;;3.00;99.90;;;;;;5053990;28;20850;-71
2024/03/08 02:21:02;;;;;;;18.13;9.70;;;2.90;99.90;;;;;;5054043;28;20829;-71
2024/03/08 02:23:28;;;;;;;21.00;10.60;;;2.80;99.90;;;;;;5054017;28;20389;-71
2024/03/08 02:25:56;;;;;;;17.93;10.03;;;2.80;99.90;;;;;;5053768;28;20402;-71
2024/03/08 02:28:22;;;;;;;15.17;10.13;;;2.80;99.90;;;;;;5052841;28;21012;-71
2024/03/08 02:30:48;;;;;;;16.40;10.60;;;2.80;99.90;;;;;;5052984;28;20448;-71
2024/03/08 02:33:17;;;;;;;20.30;10.67;;;2.70;99.90;;;;;;5052921;28;20409;-71
2024/03/08 02:35:46;;;;;;;21.50;10.47;;;2.80;99.90;;;;;;5053727;28;20746;-71
2024/03/08 02:38:16;;;;;;;22.03;11.73;;;2.80;99.90;;;;;;5053610;28;20483;-71
2024/03/08 02:40:46;;;;;;;18.00;9.03;;;2.70;99.90;;;;;;5053686;28;20402;-71
2024/03/08 02:43:12;;;;;;;15.83;10.73;;;2.70;99.90;;;;;;5051860;28;20472;-71
2024/03/08 02:45:38;;;;;;;15.57;9.10;;;2.70;99.90;;;;;;5053440;28;20459;-71
2024/03/08 02:48:06;;;;;;;19.50;12.23;;;2.60;99.90;;;;;;5053391;28;20413;-71
2024/03/08 02:50:32;;;;;;;17.27;9.67;;;2.60;99.90;;;;;;5052248;28;20174;-71
2024/03/08 02:52:57;;;;;;;15.80;11.03;;;2.60;99.90;;;;;;5051664;28;20917;-71
2024/03/08 02:55:25;;;;;;;22.90;11.47;;;2.60;99.90;;;;;;5053384;28;20531;-71
2024/03/08 02:57:51;;;;;;;16.07;11.40;;;2.60;99.90;;;;;;5051959;28;20191;-71
2024/03/08 03:00:19;;;;;;;21.23;12.17;;;2.60;99.90;;;;;;5053382;28;20409;-71
2024/03/08 03:02:45;;;;;;;18.67;11.67;;;2.50;99.90;;;;;;5053185;28;20975;-70
2024/03/08 03:05:11;;;;;;;19.30;10.77;;;2.60;99.90;;;;;;5052945;28;20846;-71
2024/03/08 03:07:37;;;;;;;23.57;10.53;;;2.60;99.90;;;;;;5052935;28;20518;-71
2024/03/08 03:10:03;;;;;;;17.83;9.50;;;2.60;99.90;;;;;;5052012;28;20402;-71
2024/03/08 03:12:30;;;;;;;18.87;12.07;;;2.60;99.90;;;;;;5053045;28;21000;-71
2024/03/08 03:14:56;;;;;;;18.80;11.23;;;2.60;99.90;;;;;;5052680;28;20408;-71
2024/03/08 03:17:25;;;;;;;23.97;9.97;;;2.60;99.90;;;;;;5052912;28;20457;-71
2024/03/08 03:19:52;;;;;;;22.83;12.77;;;2.60;99.90;;;;;;5052956;28;20405;-71
2024/03/08 03:22:18;;;;;;;18.80;11.03;;;2.50;99.90;;;;;;5052774;28;20419;-71
2024/03/08 03:24:44;;;;;;;20.43;10.60;;;2.50;99.90;;;;;;5052664;28;20466;-71
2024/03/08 03:27:12;;;;;;;19.67;11.30;;;2.40;99.90;;;;;;5051284;28;20500;-71
2024/03/08 03:29:39;;;;;;;24.67;12.33;;;2.40;99.90;;;;;;5052838;28;20408;-71
2024/03/08 03:32:07;;;;;;;17.70;10.23;;;2.40;99.90;;;;;;5051310;28;20452;-71
2024/03/08 03:34:35;;;;;;;19.57;11.07;;;2.40;99.90;;;;;;5052422;28;20450;-70
2024/03/08 03:37:02;;;;;;;14.47;9.73;;;2.40;99.90;;;;;;5052553;28;20771;-71
2024/03/08 03:39:31;;;;;;;17.30;10.50;;;2.40;99.90;;;;;;5052846;28;20493;-71
2024/03/08 03:41:57;;;;;;;17.53;10.27;;;2.40;99.90;;;;;;5050878;28;20559;-71
2024/03/08 03:44:23;;;;;;;19.17;10.27;;;2.40;99.90;;;;;;5050729;28;20421;-70
2024/03/08 03:46:50;;;;;;;22.47;11.33;;;2.30;99.90;;;;;;5052318;28;20455;-71
2024/03/08 03:49:16;;;;;;;21.03;10.43;;;2.30;99.90;;;;;;5052329;28;20924;-71
2024/03/08 03:51:42;;;;;;;16.93;10.40;;;2.20;99.90;;;;;;5052207;28;20900;-70
2024/03/08 03:54:08;;;;;;;19.70;10.63;;;2.20;99.90;;;;;;5050699;28;20413;-71
2024/03/08 03:56:33;;;;;;;15.93;9.10;;;2.20;99.90;;;;;;5050752;28;20171;-71
2024/03/08 03:58:59;;;;;;;16.07;8.37;;;2.20;99.90;;;;;;5052410;28;20194;-71
2024/03/08 04:01:24;;;;;;;16.03;8.23;;;2.20;99.90;;;;;;5051138;28;20179;-71
2024/03/08 04:03:50;;;;;;;17.10;9.60;;;2.20;99.90;;;;;;5050649;28;20166;-71
2024/03/08 04:06:15;;;;;;;22.80;11.13;;;2.20;99.90;;;;;;5052406;28;20221;-71
2024/03/08 04:08:41;;;;;;;18.97;10.60;;;2.20;99.90;;;;;;5052029;28;20187;-71
2024/03/08 04:11:08;;;;;;;24.33;11.77;;;2.20;99.90;;;;;;5050707;28;20201;-71
2024/03/08 04:13:34;;;;;;;20.07;11.43;;;2.20;99.90;;;;;;5051705;28;20159;-71
2024/03/08 04:15:59;;;;;;;16.20;11.97;;;2.20;99.90;;;;;;5051936;28;20934;-71
2024/03/08 04:18:25;;;;;;;27.87;11.70;;;2.20;99.90;;;;;;5051704;28;20906;-71
2024/03/08 04:20:51;;;;;;;23.40;11.10;;;2.20;99.90;;;;;;5051867;28;20170;-71
2024/03/08 04:23:17;;;;;;;18.57;10.43;;;2.20;99.90;;;;;;5050375;28;20405;-71
2024/03/08 04:25:43;;;;;;;20.45;10.10;;;2.20;99.90;;;;;;5050449;28;20167;-71
2024/03/08 04:28:12;;;;;;;18.27;11.57;;;2.10;99.90;;;;;;5050578;28;20794;-71
2024/03/08 04:30:39;;;;;;;18.83;10.20;;;2.00;99.90;;;;;;5051717;28;20397;-71
2024/03/08 04:33:06;;;;;;;16.37;9.30;;;2.00;99.90;;;;;;5050172;28;20421;-71
2024/03/08 04:35:31;;;;;;;19.43;10.50;;;2.00;99.90;;;;;;5051727;28;20401;-70
2024/03/08 04:37:58;;;;;;;22.50;13.00;;;2.00;99.90;;;;;;5051699;28;20811;-71
2024/03/08 04:40:23;;;;;;;22.50;11.20;;;1.90;99.90;;;;;;5051720;28;20178;-71
2024/03/08 04:42:50;;;;;;;20.83;12.10;;;1.90;99.90;;;;;;5051555;28;20397;-71
2024/03/08 04:45:16;;;;;;;17.17;9.27;;;1.90;99.90;;;;;;5050103;28;20459;-71
2024/03/08 04:47:42;;;;;;;18.47;11.50;;;1.90;99.90;;;;;;5051436;28;20449;-71
2024/03/08 04:50:08;;;;;;;27.80;12.00;;;1.90;99.90;;;;;;5052016;28;20459;-71
2024/03/08 04:52:35;;;;;;;23.90;13.50;;;1.90;99.90;;;;;;5050168;28;20228;-70
2024/03/08 04:55:01;;;;;;;16.77;9.40;;;1.90;99.90;;;;;;5052978;28;20433;-70
2024/03/08 04:57:27;;;;;;;17.57;11.27;;;1.90;99.90;;;;;;5055536;28;21072;-70
2024/03/08 04:59:53;;;;;;;18.73;10.00;;;1.90;99.90;;;;;;5054330;28;20426;-70
2024/03/08 05:02:18;;;;;;;16.53;10.30;;;1.90;99.90;;;;;;5055526;28;20175;-71
2024/03/08 05:04:44;;;;;;;26.70;11.63;;;1.90;99.90;;;;;;5055458;28;20167;-71
2024/03/08 05:07:09;;;;;;;19.70;10.30;;;1.90;99.90;;;;;;5054007;28;20206;-70
2024/03/08 05:09:36;;;;;;;20.27;10.10;;;1.90;99.90;;;;;;5055315;28;20170;-70
2024/03/08 05:12:01;;;;;;;18.60;10.70;;;1.80;99.90;;;;;;5055456;28;20155;-71
2024/03/08 05:14:27;;;;;;;14.50;9.23;;;1.80;99.90;;;;;;5055116;28;20402;-71
2024/03/08 05:16:52;;;;;;;20.23;10.83;;;1.80;99.90;;;;;;5053909;28;20171;-70
2024/03/08 05:19:20;;;;;;;21.00;9.97;;;1.80;99.90;;;;;;5053896;28;20179;-70
2024/03/08 05:21:49;;;;;;;20.83;10.77;;;1.70;99.90;;;;;;5055375;28;20174;-71
2024/03/08 05:24:15;;;;;;;20.57;12.40;;;1.70;99.90;;;;;;5054767;28;20491;-71
2024/03/08 05:26:41;;;;;;;17.10;10.70;;;1.70;99.90;;;;;;5053755;28;20460;-71
2024/03/08 05:29:10;;;;;;;15.53;10.93;;;1.70;99.90;;;;;;5054044;28;20872;-70
2024/03/08 05:31:46;;;;;;;15.27;9.87;;;1.70;99.90;;;;;;5055193;28;20420;-71
2024/03/08 05:34:14;;;;;;;19.00;11.03;;;1.70;99.90;;;;;;5054888;28;21026;-71
2024/03/08 05:36:40;;;;;;;23.10;12.20;;;1.60;99.90;;;;;;5055242;28;20488;-71
2024/03/08 05:39:06;;;;;;;22.37;11.17;;;1.60;99.90;;;;;;5055087;28;20432;-71
2024/03/08 05:41:32;;;;;;;19.47;10.47;;;1.50;99.90;;;;;;5054822;28;20428;-71
2024/03/08 05:43:57;;;;;;;16.37;10.30;;;1.50;99.90;;;;;;5053228;28;20421;-71
2024/03/08 05:46:23;;;;;;;20.53;10.30;;;1.60;99.90;;;;;;5054732;28;20200;-71
2024/03/08 05:48:48;;;;;;;20.87;10.07;;;1.50;99.90;;;;;;5054932;28;20785;-71
2024/03/08 05:51:14;;;;;;;16.83;9.80;;;1.50;99.90;;;;;;5053435;28;20654;-70
2024/03/08 05:53:39;;;;;;;21.60;11.10;;;1.50;99.90;;;;;;5054623;28;20175;-71
2024/03/08 05:56:05;;;;;;;24.23;10.47;;;1.50;99.90;;;;;;5054789;28;20174;-70
2024/03/08 05:58:31;;;;;;;19.10;10.77;;;1.50;99.90;;;;;;5053052;28;20197;-71
2024/03/08 06:00:56;;;;;;;19.03;10.87;;;1.40;99.90;;;;;;5054474;28;20642;-70
2024/03/08 06:03:22;;;;;;;20.27;12.53;;;1.40;99.90;;;;;;5054265;28;20171;-71
2024/03/08 06:05:50;;;;;;;22.80;10.60;;;1.50;99.90;;;;;;5053001;28;20672;-70
2024/03/08 06:08:16;;;;;;;14.13;9.40;;;1.50;99.90;;;;;;5054466;28;20673;-71
2024/03/08 06:10:42;;;;;;;10.77;9.57;;;1.50;99.90;;;;;;5054295;28;20404;-71
2024/03/08 06:13:07;;;;;;;16.60;11.40;;;1.50;99.90;;;;;;5052625;28;20259;-71
2024/03/08 06:15:34;;;;;;;21.83;9.60;;;1.50;99.90;;;;;;5053437;28;20642;-71
2024/03/08 06:18:00;;;;;;;18.13;10.40;;;1.50;99.90;;;;;;5054062;28;20189;-71
2024/03/08 06:20:26;;;;;;;18.17;10.80;;;1.60;99.90;;;;;;5054210;28;20401;-71
2024/03/08 06:22:52;;;;;;;18.83;9.83;;;1.60;99.90;;;;;;5054006;28;20159;-71
2024/03/08 06:25:17;;;;;;;20.00;11.20;;;1.70;99.90;;;;;;5053780;28;20463;-71
2024/03/08 06:27:43;;;;;;;25.63;10.27;;;1.70;99.90;;;;;;5053776;28;20203;-71
2024/03/08 06:30:10;;;;;;;25.43;10.50;;;1.80;99.90;;;;;;5053858;28;20401;-71
2024/03/08 06:32:37;;;;;;;18.97;9.60;;;1.80;99.90;;;;;;5053830;28;20583;-71
2024/03/08 06:35:06;;;;;;;24.50;10.93;;;1.80;99.90;;;;;;5053571;28;20970;-71
2024/03/08 06:37:32;;;;;;;21.60;12.73;;;1.90;99.90;;;;;;5052394;28;20501;-71
2024/03/08 06:39:58;;;;;;;21.97;13.57;;;1.90;99.90;;;;;;5053693;28;20401;-71
2024/03/08 06:42:23;;;;;;;23.97;12.60;;;2.00;99.90;;;;;;5052356;28;20792;-71
2024/03/08 06:44:49;;;;;;;16.90;10.67;;;2.10;99.90;;;;;;5052876;28;20167;-71
2024/03/08 06:47:18;;;;;;;19.87;12.70;;;2.20;99.90;;;;;;5052396;28;20257;-71
2024/03/08 06:49:43;;;;;;;19.10;11.47;;;2.20;99.90;;;;;;5053760;28;20410;-71
2024/03/08 06:52:10;;;;;;;24.73;12.13;;;2.30;99.90;;;;;;5053418;28;20421;-71
2024/03/08 06:54:36;;;;;;;17.50;9.53;;;2.40;99.90;;;;;;5051947;28;20174;-71
2024/03/08 06:57:05;;;;;;;22.40;11.77;;;2.50;99.90;;;;;;5052046;28;20870;-71
2024/03/08 06:59:31;;;;;;;23.70;11.13;;;2.70;99.90;;;;;;5053387;28;20397;-71
2024/03/08 07:01:57;;;;;;;24.00;13.10;;;2.70;99.90;;;;;;5052040;28;20420;-71
2024/03/08 07:04:26;;;;;;;25.80;13.03;;;2.90;99.90;;;;;;5052959;28;20788;-71
2024/03/08 07:06:51;;;;;;;22.90;12.10;;;3.00;99.90;;;;;;5050709;28;20237;-71
2024/03/08 07:09:17;;;;;;;27.00;11.27;;;3.20;99.90;;;;;;5053101;28;20393;-71
2024/03/08 07:11:43;;;;;;;22.80;12.23;;;3.20;99.90;;;;;;5053303;28;20192;-71
2024/03/08 07:14:08;;;;;;;23.17;10.40;;;3.40;99.90;;;;;;5052785;28;20577;-71
2024/03/08 07:16:35;;;;;;;25.80;13.53;;;3.50;99.90;;;;;;5052893;28;20171;-71
2024/03/08 07:19:01;;;;;;;20.17;12.57;;;3.70;99.90;;;;;;5052443;28;20183;-71
2024/03/08 07:21:27;;;;;;;16.60;10.93;;;3.80;99.90;;;;;;5051567;28;20988;-71
2024/03/08 07:26:27;;;;;;;22.00;12.23;;;4.10;99.90;;;;;;5053135;28;20247;-71
2024/03/08 07:28:56;;;;;;;18.40;11.20;;;4.30;99.90;;;;;;5052713;28;20421;-71
2024/03/08 07:33:51;;;;;;;17.83;11.30;;;4.60;99.90;;;;;;5052722;28;20463;-71
2024/03/08 07:36:16;;;;;;;24.47;11.37;;;4.80;99.90;;;;;;5052573;28;20912;-71
2024/03/08 07:38:42;;;;;;;28.03;12.03;;;4.90;99.90;;;;;;5052405;28;20198;-71
2024/03/08 07:41:07;;;;;;;19.93;11.23;;;5.30;99.90;;;;;;5051236;28;20175;-72
2024/03/08 07:43:33;;;;;;;18.30;11.30;;;6.10;99.90;;;;;;5052267;28;20172;-71
2024/03/08 07:45:58;;;;;;;21.57;12.80;;;7.20;99.90;;;;;;5052481;28;20171;-72
2024/03/08 07:48:24;;;;;;;19.47;12.30;;;8.40;99.90;;;;;;5052359;28;20189;-72
2024/03/08 07:50:49;;;;;;;17.30;10.97;;;9.40;99.90;;;;;;5052285;28;20554;-72
2024/03/08 07:53:15;;;;;;;13.20;10.00;;;10.50;99.90;;;;;;5051953;28;20209;-72
2024/03/08 07:55:42;;;;;;;23.10;12.30;;;11.60;96.60;;;;;;5052426;28;20178;-72
2024/03/08 07:58:10;;;;;;;20.20;11.80;;;13.00;88.10;;;;;;5052148;28;20182;-70
2024/03/08 08:00:36;;;;;;;15.43;11.13;;;14.00;70.50;;;;;;5052127;28;20912;-70
2024/03/08 08:03:02;;;;;;;18.33;11.70;;;14.30;59.10;;;;;;5051839;28;20479;-71
2024/03/08 08:05:28;;;;;;;21.60;11.87;;;14.50;57.30;;;;;;5050588;28;20174;-71
2024/03/08 08:07:53;;;;;;;20.87;12.53;;;14.90;54.10;;;;;;5051974;28;20449;-71
2024/03/08 08:10:22;;;;;;;16.00;11.67;;;15.60;53.40;;;;;;5052014;28;20166;-71
2024/03/08 08:12:51;;;;;;;15.40;12.00;;;15.90;49.20;;;;;;5052081;28;20632;-71
2024/03/08 08:15:17;;;;;;;18.67;11.57;;;16.30;47.50;;;;;;5051830;28;20478;-71
2024/03/08 08:17:43;;;;;;;14.83;11.20;;;17.00;47.80;;;;;;5050848;28;20813;-71
2024/03/08 08:20:11;;;;;;;16.73;11.87;;;17.10;44.50;;;;;;5051967;28;20437;-72
2024/03/08 08:22:40;;;;;;;15.93;11.73;;;17.60;43.80;;;;;;5051805;28;20403;-71
2024/03/08 08:25:07;;;;;;;14.43;11.93;;;18.10;42.40;;;;;;5051611;28;20406;-71
2024/03/08 08:27:33;;;;;;;17.43;11.43;;;18.10;40.40;;;;;;5050468;28;20459;-71
2024/03/08 08:29:58;;;;;;;22.33;13.00;;;18.20;40.30;;;;;;5051942;28;20405;-71
2024/03/08 08:32:24;;;;;;;16.03;11.30;;;18.80;40.50;;;;;;5051931;28;20905;-72
2024/03/08 08:34:50;;;;;;;14.17;11.20;;;19.50;39.60;;;;;;5051549;28;20174;-72
2024/03/08 08:37:16;;;;;;;17.27;12.50;;;19.90;37.50;;;;;;5051703;28;20193;-72
2024/03/08 08:39:42;;;;;;;16.07;12.97;;;20.20;37.30;;;;;;5050617;28;20166;-72
2024/03/08 08:42:09;;;;;;;12.50;10.63;;;21.00;36.60;;;;;;5052010;28;20968;-72
2024/03/08 08:44:35;;;;;;;19.20;13.43;;;21.20;35.10;;;;;;5051549;28;20167;-72
2024/03/08 08:47:01;;;;;;;14.73;12.20;;;20.60;34.10;;;;;;5051544;28;20952;-72
2024/03/08 08:49:26;;;;;;;18.83;12.53;;;20.40;33.90;;;;;;5052120;28;20856;-72
2024/03/08 08:51:52;;;;;;;13.97;12.20;;;20.60;34.10;;;;;;5051561;28;20428;-72
2024/03/08 08:54:18;;;;;;;14.43;11.40;;;20.50;33.60;;;;;;5051579;28;20166;-73
2024/03/08 08:56:44;;;;;;;16.03;12.23;;;20.10;33.30;;;;;;5051588;28;20489;-72
2024/03/08 08:59:13;;;;;;;16.10;11.37;;;20.50;34.00;;;;;;5051405;28;20189;-72
2024/03/08 09:01:39;;;;;;;15.00;10.50;;;20.30;33.30;;;;;;5050193;28;20167;-72
2024/03/08 09:04:05;;;;;;;17.57;11.17;;;20.60;34.00;;;;;;5049883;28;20401;-72
2024/03/08 09:06:31;;;;;;;13.97;10.40;;;20.90;34.20;;;;;;5051418;28;20445;-72
2024/03/08 09:08:56;;;;;;;14.70;10.73;;;21.50;33.20;;;;;;5051331;28;20421;-72
2024/03/08 09:11:22;;;;;;;13.40;10.87;;;21.90;32.60;;;;;;5051464;28;20172;-72
2024/03/08 09:13:48;;;;;;;17.53;10.90;;;22.00;31.80;;;;;;5049801;28;20527;-72
2024/03/08 09:16:14;;;;;;;15.03;11.93;;;22.00;31.60;;;;;;5051374;28;20262;-72
2024/03/08 09:18:41;;;;;;;14.30;11.30;;;21.90;31.80;;;;;;5051222;28;20834;-72
2024/03/08 09:21:09;;;;;;;14.70;11.67;;;22.40;31.20;;;;;;5051353;28;20516;-72
2024/03/08 09:23:38;;;;;;;15.63;11.20;;;22.80;31.20;;;;;;5051202;28;20440;-73
2024/03/08 09:26:03;;;;;;;16.70;11.83;;;23.40;30.90;;;;;;5051251;28;20935;-72
2024/03/08 09:28:29;;;;;;;14.60;10.90;;;23.40;31.00;;;;;;5051190;28;20422;-73
2024/03/08 09:30:55;;;;;;;12.93;11.63;;;23.80;29.80;;;;;;5051199;28;20216;-73
2024/03/08 09:33:21;;;;;;;13.33;11.93;;;23.50;29.60;;;;;;5050896;28;20159;-73
2024/03/08 09:35:48;;;;;;;17.20;11.07;;;23.60;30.80;;;;;;5051347;28;20159;-71
2024/03/08 09:38:14;;;;;;;14.97;10.47;;;23.70;30.00;;;;;;5049720;28;20483;-71
2024/03/08 09:40:43;;;;;;;14.73;10.10;;;23.70;29.20;;;;;;5050756;28;20411;-72
2024/03/08 09:43:11;;;;;;;14.03;10.33;;;23.20;28.60;;;;;;5054468;28;20419;-71
2024/03/08 09:45:41;;;;;;;12.70;10.57;;;22.80;28.50;;;;;;5054462;28;20437;-68
2024/03/08 09:48:14;;;;;;;14.33;10.00;;;22.90;29.20;;;;;;5054559;28;20472;-68
2024/03/08 09:50:42;;;;;;;13.20;9.40;;;22.70;29.40;;;;;;5054735;28;20420;-68
2024/03/08 09:53:09;;;;;;;12.60;10.27;;;22.20;29.30;;;;;;5053038;28;20425;-68
2024/03/08 09:55:42;;;;;;;11.30;9.57;;;22.30;29.60;;;;;;5054645;28;20405;-68
2024/03/08 10:00:45;;;;;;;14.43;10.60;;;23.30;29.90;;;;;;5054679;28;20413;-68
2024/03/08 10:03:10;;;;;;;14.37;10.63;;;23.00;28.30;;;;;;5054123;28;20412;-68
2024/03/08 10:05:36;;;;;;;15.80;10.17;;;22.80;28.90;;;;;;5054332;28;20171;-68
2024/03/08 10:08:02;;;;;;;14.47;10.13;;;22.80;29.30;;;;;;5054177;28;20234;-68
2024/03/08 10:10:29;;;;;;;11.93;9.80;;;22.50;29.10;;;;;;5053018;28;20634;-69
2024/03/08 10:12:56;;;;;;;14.50;10.90;;;23.20;29.90;;;;;;5054296;28;20520;-69
2024/03/08 10:15:21;;;;;;;11.83;9.70;;;24.10;29.20;;;;;;5054278;28;20428;-69
2024/03/08 10:17:47;;;;;;;11.60;9.10;;;24.70;28.30;;;;;;5054120;28;20424;-68
2024/03/08 10:20:17;;;;;;;11.77;8.80;;;24.60;28.00;;;;;;5054148;28;20170;-69
2024/03/08 10:22:43;;;;;;;13.93;8.30;;;24.80;27.60;;;;;;5054156;28;20205;-68
2024/03/08 10:25:11;;;;;;;8.83;7.90;;;24.70;27.80;;;;;;5052553;28;20413;-69
2024/03/08 10:27:39;;;;;;;10.63;8.77;;;25.00;27.80;;;;;;5053957;28;20453;-68
2024/03/08 10:30:08;;;;;;;13.40;8.97;;;25.60;27.30;;;;;;5053999;28;20413;-69
2024/03/08 10:32:34;;;;;;;9.27;8.23;;;25.90;26.70;;;;;;5053844;28;20470;-68
2024/03/08 10:34:59;;;;;;;11.33;9.20;;;25.70;26.20;;;;;;5053604;28;20397;-69
2024/03/08 10:37:28;;;;;;;8.63;7.37;;;25.30;26.00;;;;;;5053737;28;20191;-69
2024/03/08 10:40:10;;;;;;;10.13;8.10;;;24.30;26.30;;;;;;5053725;28;20163;-69
2024/03/08 10:42:43;;;;;;;9.83;7.57;;;24.30;27.10;;;;;;5053775;28;20406;-69
2024/03/08 10:45:37;;;;;;;10.27;9.17;;;24.40;27.10;;;;;;5053611;28;20435;-69
2024/03/08 10:48:08;;;;;;;10.13;7.20;;;24.50;26.70;;;;;;5052995;28;20988;-69
2024/03/08 10:50:35;;;;;;;11.63;7.97;;;24.50;27.20;;;;;;5053727;28;20901;-69
2024/03/08 10:53:01;;;;;;;8.00;7.20;;;24.30;26.40;;;;;;5052155;28;20808;-69
2024/03/08 10:55:28;;;;;;;7.57;6.73;;;24.20;26.40;;;;;;5053918;28;20401;-69
2024/03/08 10:57:54;;;;;;;7.53;6.77;;;24.00;26.10;;;;;;5052340;28;21083;-69
2024/03/08 11:00:26;;;;;;;7.87;6.40;;;24.00;26.30;;;;;;5053242;28;20413;-69
2024/03/08 11:02:53;;;;;;;11.10;7.63;;;24.50;26.40;;;;;;5053376;28;20496;-69
2024/03/08 11:05:51;;;;;;;9.43;7.67;;;25.10;26.50;;;;;;5052068;28;20470;-69
2024/03/08 11:08:21;;;;;;;8.83;6.97;;;25.20;25.30;;;;;;5029767;28;20853;-69
2024/03/08 11:10:52;;;;;;;9.73;7.47;;;24.90;25.60;;;;;;5051850;28;20948;-69
2024/03/08 11:13:51;;;;;;;10.10;7.17;;;24.70;25.50;;;;;;5052970;28;20502;-69
2024/03/08 11:16:43;;;;;;;8.60;6.90;;;24.70;25.70;;;;;;5041027;28;20456;-69
2024/03/08 11:19:10;;;;;;;7.10;6.27;;;24.70;26.00;;;;;;5049650;28;20457;-69
2024/03/08 11:21:39;;;;;;;8.77;7.40;;;24.60;25.70;;;;;;5053010;28;20413;-69
2024/03/08 11:24:16;;;;;;;9.70;7.37;;;24.80;25.50;;;;;;5052696;28;20405;-69
2024/03/08 11:26:42;;;;;;;10.73;8.03;;;24.70;25.00;;;;;;5052927;28;20858;-69
2024/03/08 11:29:39;;;;;;;8.53;7.40;;;24.40;25.20;;;;;;5052754;28;20522;-69
2024/03/08 11:32:09;;;;;;;7.07;5.97;;;24.20;26.20;;;;;;5040602;28;20244;-69
2024/03/08 11:34:35;;;;;;;9.00;6.37;;;25.00;26.10;;;;;;5052629;28;21157;-69
2024/03/08 11:37:03;;;;;;;9.03;7.00;;;25.30;25.70;;;;;;5052757;28;20504;-69
2024/03/08 11:39:30;;;;;;;10.83;7.40;;;25.00;24.70;;;;;;5052676;28;20167;-69
2024/03/08 11:41:56;;;;;;;10.27;7.83;;;25.10;25.00;;;;;;5052665;28;20409;-69
2024/03/08 11:44:21;;;;;;;10.00;6.70;;;24.70;25.00;;;;;;5052187;28;20409;-69
2024/03/08 11:46:47;;;;;;;10.20;7.87;;;24.20;25.20;;;;;;5052413;28;20233;-69
2024/03/08 11:49:14;;;;;;;8.87;6.80;;;24.70;25.90;;;;;;5051124;28;20300;-69
2024/03/08 11:51:40;;;;;;;9.07;6.70;;;24.60;25.50;;;;;;5052412;28;20417;-69
2024/03/08 11:54:11;;;;;;;8.17;7.00;;;24.60;25.50;;;;;;5052168;28;20404;-69
2024/03/08 11:56:37;;;;;;;8.40;7.60;;;25.20;25.50;;;;;;5052362;28;20409;-69
2024/03/08 11:59:03;;;;;;;8.47;6.97;;;25.40;25.30;;;;;;5052265;28;20846;-69
2024/03/08 12:01:28;;;;;;;9.47;7.90;;;25.80;25.20;;;;;;5052253;28;20405;-69
2024/03/08 12:03:58;;;;;;;9.07;7.30;;;26.60;25.30;;;;;;5051696;28;20657;-69
2024/03/08 12:06:24;;;;;;;9.20;7.17;;;26.90;24.00;;;;;;5052183;28;20198;-69
2024/03/08 12:08:50;;;;;;;8.13;7.33;;;27.10;24.20;;;;;;5052091;28;20920;-69
2024/03/08 12:11:18;;;;;;;9.60;7.70;;;26.90;24.50;;;;;;5052112;28;20759;-69
2024/03/08 12:13:46;;;;;;;9.30;8.33;;;26.80;23.90;;;;;;5051816;28;20814;-69
2024/03/08 12:16:12;;;;;;;10.30;8.20;;;26.60;24.40;;;;;;5052002;28;20527;-69
2024/03/08 12:18:38;;;;;;;11.20;9.00;;;26.80;24.50;;;;;;5051886;28;20525;-69
2024/03/08 12:21:14;;;;;;;8.80;8.00;;;27.00;23.60;;;;;;5050644;28;20912;-69
2024/03/08 12:23:39;;;;;;;8.70;7.80;;;26.40;23.60;;;;;;5050379;28;20542;-69
2024/03/08 12:26:16;;;;;;;9.90;8.43;;;26.60;24.70;;;;;;5051834;28;20846;-69
2024/03/08 12:28:47;;;;;;;8.77;7.93;;;26.90;24.70;;;;;;5051834;28;20265;-69
2024/03/08 12:31:13;;;;;;;8.70;7.83;;;26.90;23.80;;;;;;5051857;28;20394;-69
2024/03/08 12:33:58;;;;;;;13.07;8.30;;;26.60;23.80;;;;;;5051509;28;20485;-69
2024/03/08 12:36:25;;;;;;;9.47;8.50;;;27.60;24.70;;;;;;5051797;28;20409;-69
2024/03/08 12:38:54;;;;;;;10.03;8.90;;;27.90;24.10;;;;;;5051692;28;20461;-69
2024/03/08 12:41:21;;;;;;;10.37;8.13;;;27.60;23.30;;;;;;5050582;28;20817;-69
2024/03/08 12:43:48;;;;;;;9.77;8.07;;;28.20;23.40;;;;;;5051407;28;20412;-70
2024/03/08 12:46:26;;;;;;;9.67;7.70;;;27.60;23.10;;;;;;5051670;28;20433;-69